createdAt,value
2019-03-21T00:01:31.829Z,7.23
2019-03-21T00:04:12.173Z,7.57
2019-03-21T00:06:40.784Z,7.56
2019-03-21T00:09:11.683Z,7.74
2019-03-21T00:12:00.532Z,7.68
2019-03-21T00:14:44.583Z,7.81
2019-03-21T00:17:19.159Z,7.94
2019-03-21T00:19:47.638Z,7.80
2019-03-21T00:22:16.228Z,7.82
2019-03-21T00:24:45.661Z,7.61
2019-03-21T00:27:14.254Z,7.34
2019-03-21T00:29:42.827Z,7.02
2019-03-21T00:32:11.422Z,6.81
2019-03-21T00:34:45.379Z,7.01
2019-03-21T00:37:13.972Z,7.24
2019-03-21T00:39:42.583Z,7.61
2019-03-21T00:42:11.162Z,7.89
2019-03-21T00:44:39.730Z,8.02
2019-03-21T00:47:08.185Z,8.10
2019-03-21T00:49:36.662Z,8.10
2019-03-21T00:52:05.270Z,8.10
2019-03-21T00:54:33.797Z,7.95
2019-03-21T00:57:02.393Z,7.94
2019-03-21T00:59:31.022Z,7.80
2019-03-21T01:02:00.582Z,7.71
2019-03-21T01:04:29.497Z,7.61
2019-03-21T01:06:58.086Z,7.26
2019-03-21T01:09:26.722Z,7.08
2019-03-21T01:11:55.271Z,7.12
2019-03-21T01:14:29.790Z,7.32
2019-03-21T01:16:54.255Z,7.41
2019-03-21T01:19:22.793Z,7.50
2019-03-21T01:21:51.400Z,7.64
2019-03-21T01:24:19.867Z,7.76
2019-03-21T01:26:48.535Z,7.66
2019-03-21T01:29:17.072Z,7.51
2019-03-21T01:31:45.544Z,7.47
2019-03-21T01:34:14.112Z,7.32
2019-03-21T01:36:42.692Z,7.11
2019-03-21T01:39:11.202Z,6.94
2019-03-21T01:41:39.848Z,6.60
2019-03-21T01:44:08.382Z,6.65
2019-03-21T01:46:36.948Z,6.84
2019-03-21T01:49:05.614Z,7.15
2019-03-21T01:51:34.227Z,7.40
2019-03-21T01:54:02.855Z,7.50
2019-03-21T01:56:31.767Z,7.63
2019-03-21T01:59:00.309Z,7.56
2019-03-21T02:01:28.927Z,7.53
2019-03-21T02:03:57.462Z,7.38
2019-03-21T02:06:25.991Z,7.31
2019-03-21T02:08:54.814Z,7.24
2019-03-21T02:11:23.414Z,7.00
2019-03-21T02:13:51.997Z,6.72
2019-03-21T02:16:20.542Z,6.55
2019-03-21T02:18:49.166Z,6.53
2019-03-21T02:21:18.837Z,6.60
2019-03-21T02:23:47.335Z,6.77
2019-03-21T02:26:15.962Z,6.81
2019-03-21T02:28:44.531Z,6.79
2019-03-21T02:31:13.172Z,6.83
2019-03-21T02:33:44.483Z,7.09
2019-03-21T02:36:14.217Z,7.23
2019-03-21T02:38:42.781Z,7.16
2019-03-21T02:41:14.323Z,6.99
2019-03-21T02:43:42.793Z,7.00
2019-03-21T02:46:11.307Z,6.73
2019-03-21T02:48:39.870Z,6.51
2019-03-21T02:51:08.791Z,6.46
2019-03-21T02:53:37.356Z,6.38
2019-03-21T02:56:09.221Z,6.52
2019-03-21T02:58:37.785Z,6.65
2019-03-21T03:01:06.337Z,6.74
2019-03-21T03:03:34.867Z,6.77
2019-03-21T03:06:03.544Z,6.92
2019-03-21T03:08:32.084Z,7.07
2019-03-21T03:11:03.612Z,7.21
2019-03-21T03:13:33.184Z,7.15
2019-03-21T03:16:01.709Z,6.95
2019-03-21T03:18:30.556Z,6.92
2019-03-21T03:20:59.061Z,6.69
2019-03-21T03:23:27.581Z,6.29
2019-03-21T03:25:56.212Z,5.92
2019-03-21T03:28:26.906Z,5.73
2019-03-21T03:30:57.407Z,5.84
2019-03-21T03:33:26.018Z,6.11
2019-03-21T03:35:54.862Z,6.45
2019-03-21T03:38:23.407Z,6.66
2019-03-21T03:40:54.498Z,6.60
2019-03-21T03:43:23.157Z,6.60
2019-03-21T03:45:51.687Z,6.63
2019-03-21T03:48:20.430Z,6.79
2019-03-21T03:50:48.931Z,6.65
2019-03-21T03:53:17.605Z,6.63
2019-03-21T03:55:46.519Z,6.64
2019-03-21T03:58:20.698Z,6.58
2019-03-21T04:00:49.324Z,6.30
2019-03-21T04:03:17.922Z,5.77
2019-03-21T04:05:46.601Z,5.60
2019-03-21T04:08:15.225Z,5.76
2019-03-21T04:10:48.445Z,6.00
2019-03-21T04:13:16.982Z,6.01
2019-03-21T04:15:52.356Z,6.24
2019-03-21T04:18:17.550Z,6.37
2019-03-21T04:20:49.206Z,6.41
2019-03-21T04:23:20.218Z,6.47
2019-03-21T04:26:00.795Z,6.31
2019-03-21T04:28:29.485Z,6.23
2019-03-21T04:30:58.051Z,6.33
2019-03-21T04:33:26.661Z,6.11
2019-03-21T04:35:55.303Z,5.76
2019-03-21T04:38:24.148Z,5.36
2019-03-21T04:40:52.732Z,5.38
2019-03-21T04:43:21.869Z,5.56
2019-03-21T04:45:50.456Z,5.82
2019-03-21T04:48:18.992Z,5.99
2019-03-21T04:50:47.472Z,6.10
2019-03-21T04:53:16.032Z,6.20
2019-03-21T04:55:44.602Z,6.29
2019-03-21T04:58:13.111Z,6.42
2019-03-21T05:00:44.392Z,6.44
2019-03-21T05:03:18.297Z,6.24
2019-03-21T05:05:46.869Z,6.26
2019-03-21T05:08:15.412Z,5.91
2019-03-21T05:10:43.931Z,5.52
2019-03-21T05:13:12.462Z,5.48
2019-03-21T05:15:51.505Z,5.38
2019-03-21T05:18:26.090Z,5.40
2019-03-21T05:20:54.554Z,5.64
2019-03-21T05:23:23.132Z,5.83
2019-03-21T05:25:51.793Z,5.93
2019-03-21T05:28:20.363Z,5.96
2019-03-21T05:30:51.921Z,5.97
2019-03-21T05:33:20.455Z,5.97
2019-03-21T05:35:49.100Z,5.86
2019-03-21T05:38:19.204Z,5.75
2019-03-21T05:40:47.996Z,5.87
2019-03-21T05:43:34.548Z,5.80
2019-03-21T05:46:03.168Z,5.58
2019-03-21T05:48:31.719Z,5.11
2019-03-21T05:51:00.225Z,5.01
2019-03-21T05:53:28.809Z,5.03
2019-03-21T05:55:57.425Z,5.30
2019-03-21T05:58:26.011Z,5.66
2019-03-21T06:01:00.672Z,6.05
2019-03-21T06:03:32.790Z,6.34
2019-03-21T06:06:04.329Z,6.38
2019-03-21T06:08:35.844Z,6.54
2019-03-21T06:11:04.730Z,6.60
2019-03-21T06:13:33.369Z,6.48
2019-03-21T06:16:08.820Z,6.62
2019-03-21T06:18:49.160Z,6.48
2019-03-21T06:21:35.064Z,6.20
2019-03-21T06:24:30.750Z,5.85
2019-03-21T06:27:28.420Z,5.62
2019-03-21T06:29:57.008Z,5.80
2019-03-21T06:32:26.843Z,6.13
2019-03-21T06:34:56.473Z,6.46
2019-03-21T06:37:28.325Z,6.60
2019-03-21T06:39:55.816Z,6.70
2019-03-21T06:42:24.433Z,6.78
2019-03-21T06:44:53.018Z,6.85
2019-03-21T06:47:21.579Z,6.95
2019-03-21T06:49:50.106Z,7.05
2019-03-21T06:52:18.589Z,7.26
2019-03-21T06:54:47.094Z,7.17
2019-03-21T06:57:15.695Z,6.89
2019-03-21T06:59:44.212Z,6.77
2019-03-21T07:02:12.882Z,6.70
2019-03-21T07:04:41.355Z,6.94
2019-03-21T07:07:09.838Z,7.28
2019-03-21T07:09:38.467Z,7.75
2019-03-21T07:12:07.896Z,8.21
2019-03-21T07:14:36.638Z,8.66
2019-03-21T07:17:05.158Z,9.16
2019-03-21T07:19:33.704Z,9.71
2019-03-21T07:22:02.330Z,10.30
2019-03-21T07:24:31.081Z,10.73
2019-03-21T07:26:59.597Z,11.28
2019-03-21T07:29:28.241Z,11.50
2019-03-21T07:31:56.845Z,11.85
2019-03-21T07:34:25.543Z,12.11
2019-03-21T07:36:54.119Z,11.88
2019-03-21T07:39:22.695Z,11.85
2019-03-21T07:41:51.275Z,12.02
2019-03-21T07:44:19.820Z,12.23
2019-03-21T07:46:48.386Z,12.26
2019-03-21T07:49:16.972Z,12.52
2019-03-21T07:51:45.547Z,12.75
2019-03-21T07:54:14.006Z,13.01
2019-03-21T07:56:43.581Z,13.28
2019-03-21T07:59:12.212Z,13.36
2019-03-21T08:01:40.728Z,13.78
2019-03-21T08:04:09.280Z,14.02
2019-03-21T08:06:37.901Z,13.98
2019-03-21T08:09:07.903Z,13.77
2019-03-21T08:11:36.457Z,13.65
2019-03-21T08:14:05.345Z,13.61
2019-03-21T08:16:33.981Z,13.89
2019-03-21T08:19:02.605Z,14.07
2019-03-21T08:21:31.098Z,14.10
2019-03-21T08:23:59.692Z,14.16
2019-03-21T08:26:28.328Z,14.19
2019-03-21T08:28:56.996Z,14.20
2019-03-21T08:31:25.578Z,14.16
2019-03-21T08:33:54.163Z,14.27
2019-03-21T08:36:22.688Z,14.38
2019-03-21T08:38:51.232Z,14.73
2019-03-21T08:41:19.861Z,14.90
2019-03-21T08:43:48.528Z,15.05
2019-03-21T08:46:17.090Z,15.32
2019-03-21T08:48:45.696Z,15.55
2019-03-21T08:51:14.340Z,15.86
2019-03-21T08:53:42.921Z,16.30
2019-03-21T08:56:11.556Z,16.32
2019-03-21T08:58:40.640Z,16.28
2019-03-21T09:01:09.225Z,16.37
2019-03-21T09:03:37.790Z,16.23
2019-03-21T09:06:06.405Z,16.20
2019-03-21T09:08:35.037Z,16.39
2019-03-21T09:11:03.679Z,16.17
2019-03-21T09:13:32.229Z,16.11
2019-03-21T09:16:01.676Z,16.07
2019-03-21T09:18:30.304Z,16.13
2019-03-21T09:20:58.927Z,16.13
2019-03-21T09:23:27.489Z,16.11
2019-03-21T09:25:56.164Z,16.15
2019-03-21T09:28:24.752Z,16.07
2019-03-21T09:30:53.414Z,16.18
2019-03-21T09:33:21.974Z,16.11
2019-03-21T09:35:50.556Z,15.89
2019-03-21T09:38:19.150Z,16.03
2019-03-21T09:40:47.844Z,16.12
2019-03-21T09:43:16.507Z,16.39
2019-03-21T09:45:45.119Z,16.40
2019-03-21T09:48:13.714Z,16.46
2019-03-21T09:50:42.331Z,16.24
2019-03-21T09:53:10.933Z,16.13
2019-03-21T09:55:39.509Z,16.29
2019-03-21T09:58:08.033Z,16.40
2019-03-21T10:00:38.042Z,16.81
2019-03-21T10:03:07.064Z,16.71
2019-03-21T10:05:35.684Z,16.81
2019-03-21T10:08:04.896Z,16.94
2019-03-21T10:10:34.426Z,17.23
2019-03-21T10:13:03.308Z,17.65
2019-03-21T10:15:31.932Z,17.58
2019-03-21T10:18:00.531Z,17.50
2019-03-21T10:20:29.333Z,17.22
2019-03-21T10:22:57.956Z,17.09
2019-03-21T10:25:26.994Z,17.14
2019-03-21T10:27:55.798Z,17.24
2019-03-21T10:30:38.597Z,17.42
2019-03-21T10:33:09.740Z,17.43
2019-03-21T10:35:38.433Z,17.54
2019-03-21T10:38:07.869Z,17.51
2019-03-21T10:40:36.838Z,17.49
2019-03-21T10:43:06.281Z,17.60
2019-03-21T10:45:34.954Z,17.72
2019-03-21T10:48:03.618Z,17.56
2019-03-21T10:50:36.855Z,17.56
2019-03-21T10:53:06.040Z,17.73
2019-03-21T10:55:34.728Z,17.95
2019-03-21T10:58:03.339Z,17.96
2019-03-21T11:00:31.954Z,17.79
2019-03-21T11:03:00.585Z,17.63
2019-03-21T11:05:29.178Z,17.69
2019-03-21T11:07:57.702Z,17.99
2019-03-21T11:10:26.332Z,18.06
2019-03-21T11:12:54.964Z,18.02
2019-03-21T11:15:23.659Z,18.04
2019-03-21T11:17:52.400Z,17.94
2019-03-21T11:20:29.897Z,18.05
2019-03-21T11:22:58.435Z,18.43
2019-03-21T11:25:27.184Z,18.44
2019-03-21T11:27:55.830Z,18.31
2019-03-21T11:30:35.854Z,18.38
2019-03-21T11:33:05.089Z,18.43
2019-03-21T11:35:34.085Z,18.50
2019-03-21T11:38:02.690Z,18.63
2019-03-21T11:40:31.294Z,18.75
2019-03-21T11:43:00.288Z,18.91
2019-03-21T11:45:28.880Z,18.96
2019-03-21T11:47:59.693Z,19.07
2019-03-21T11:50:28.029Z,19.04
2019-03-21T11:52:56.619Z,18.98
2019-03-21T11:55:25.267Z,19.00
2019-03-21T11:57:53.875Z,19.06
2019-03-21T12:00:22.579Z,19.09
2019-03-21T12:02:51.173Z,19.20
2019-03-21T12:05:19.816Z,19.17
2019-03-21T12:07:48.293Z,19.15
2019-03-21T12:10:17.229Z,19.22
2019-03-21T12:12:45.854Z,19.14
2019-03-21T12:15:14.877Z,19.16
2019-03-21T12:17:43.504Z,19.08
2019-03-21T12:20:29.438Z,19.08
2019-03-21T12:22:58.064Z,19.06
2019-03-21T12:25:26.750Z,19.03
2019-03-21T12:27:55.384Z,18.96
2019-03-21T12:30:32.852Z,18.81
2019-03-21T12:33:02.139Z,19.01
2019-03-21T12:35:31.712Z,19.07
2019-03-21T12:38:00.328Z,18.91
2019-03-21T12:40:29.131Z,18.85
2019-03-21T12:42:57.765Z,18.83
2019-03-21T12:45:26.395Z,19.16
2019-03-21T12:47:54.998Z,19.48
2019-03-21T12:50:23.625Z,19.60
2019-03-21T12:52:52.212Z,19.76
2019-03-21T12:55:20.795Z,19.83
2019-03-21T12:57:49.409Z,20.12
2019-03-21T13:00:23.470Z,20.25
2019-03-21T13:02:52.160Z,20.28
2019-03-21T13:05:31.099Z,20.44
2019-03-21T13:07:59.661Z,20.14
2019-03-21T13:10:28.219Z,20.02
2019-03-21T13:12:56.880Z,19.72
2019-03-21T13:15:30.255Z,19.72
2019-03-21T13:17:56.109Z,19.79
2019-03-21T13:20:24.708Z,20.01
2019-03-21T13:22:53.981Z,20.04
2019-03-21T13:25:22.740Z,20.05
2019-03-21T13:27:51.289Z,20.17
2019-03-21T13:30:19.894Z,20.10
2019-03-21T13:32:48.492Z,20.15
2019-03-21T13:35:17.094Z,20.11
2019-03-21T13:37:45.663Z,20.13
2019-03-21T13:40:14.351Z,20.25
2019-03-21T13:42:43.849Z,20.27
2019-03-21T13:45:12.645Z,20.19
2019-03-21T13:47:41.276Z,20.15
2019-03-21T13:50:10.264Z,20.03
2019-03-21T13:52:38.852Z,20.01
2019-03-21T13:55:08.279Z,19.96
2019-03-21T13:57:36.918Z,19.82
2019-03-21T14:00:08.354Z,19.77
2019-03-21T14:02:36.837Z,19.86
2019-03-21T14:05:07.624Z,19.79
2019-03-21T14:07:36.229Z,19.79
2019-03-21T14:10:06.900Z,19.79
2019-03-21T14:12:35.598Z,19.67
2019-03-21T14:15:06.217Z,19.63
2019-03-21T14:17:34.759Z,19.88
2019-03-21T14:20:03.615Z,20.43
2019-03-21T14:22:32.174Z,20.75
2019-03-21T14:25:00.740Z,21.27
2019-03-21T14:27:29.390Z,21.32
2019-03-21T14:30:01.824Z,21.43
2019-03-21T14:32:28.834Z,21.54
2019-03-21T14:34:57.454Z,21.85
2019-03-21T14:37:26.075Z,22.17
2019-03-21T14:39:55.564Z,22.34
2019-03-21T14:42:24.141Z,22.42
2019-03-21T14:44:52.578Z,22.79
2019-03-21T14:47:21.237Z,22.60
2019-03-21T14:49:49.868Z,22.28
2019-03-21T14:52:18.454Z,22.38
2019-03-21T14:54:47.027Z,21.91
2019-03-21T14:57:16.680Z,21.88
2019-03-21T14:59:45.303Z,21.82
2019-03-21T15:02:13.840Z,21.67
2019-03-21T15:04:42.341Z,22.02
2019-03-21T15:07:10.933Z,22.48
2019-03-21T15:09:39.550Z,22.72
2019-03-21T15:12:08.330Z,22.87
2019-03-21T15:14:36.822Z,22.86
2019-03-21T15:17:05.554Z,22.63
2019-03-21T15:19:34.067Z,22.76
2019-03-21T15:22:02.697Z,22.87
2019-03-21T15:24:31.247Z,22.38
2019-03-21T15:26:59.907Z,21.87
2019-03-21T15:29:28.429Z,21.90
2019-03-21T15:31:57.175Z,22.30
2019-03-21T15:34:25.786Z,22.51
2019-03-21T15:36:54.406Z,22.50
2019-03-21T15:39:23.085Z,22.49
2019-03-21T15:41:51.621Z,22.52
2019-03-21T15:44:20.152Z,22.57
2019-03-21T15:46:48.724Z,22.61
2019-03-21T15:49:17.351Z,22.57
2019-03-21T15:51:45.878Z,22.70
2019-03-21T15:54:15.236Z,22.37
2019-03-21T15:56:43.924Z,22.31
2019-03-21T15:59:12.627Z,22.43
2019-03-21T16:01:41.221Z,22.23
2019-03-21T16:04:09.848Z,22.28
2019-03-21T16:06:38.379Z,22.31
2019-03-21T16:09:07.523Z,22.40
2019-03-21T16:11:36.219Z,22.36
2019-03-21T16:14:04.847Z,22.14
2019-03-21T16:16:33.393Z,22.20
2019-03-21T16:19:01.978Z,22.14
2019-03-21T16:21:30.518Z,21.98
2019-03-21T16:24:04.969Z,22.04
2019-03-21T16:26:29.331Z,22.19
2019-03-21T16:28:57.903Z,22.25
2019-03-21T16:31:26.615Z,22.22
2019-03-21T16:33:55.131Z,22.07
2019-03-21T16:36:23.719Z,21.84
2019-03-21T16:38:52.353Z,21.90
2019-03-21T16:41:20.943Z,22.04
2019-03-21T16:43:49.488Z,22.01
2019-03-21T16:46:18.031Z,21.98
2019-03-21T16:48:46.509Z,21.88
2019-03-21T16:51:15.158Z,21.84
2019-03-21T16:53:44.086Z,21.98
2019-03-21T16:56:12.641Z,22.03
2019-03-21T16:58:41.136Z,22.10
2019-03-21T17:01:09.839Z,22.09
2019-03-21T17:03:38.404Z,21.92
2019-03-21T17:06:07.010Z,21.98
2019-03-21T17:08:35.592Z,21.93
2019-03-21T17:11:04.283Z,21.89
2019-03-21T17:13:32.829Z,21.77
2019-03-21T17:16:01.475Z,21.82
2019-03-21T17:18:30.044Z,21.67
2019-03-21T17:20:58.557Z,21.65
2019-03-21T17:23:27.113Z,21.64
2019-03-21T17:25:55.704Z,21.69
2019-03-21T17:28:24.280Z,21.43
2019-03-21T17:30:52.878Z,21.20
2019-03-21T17:33:21.683Z,21.21
2019-03-21T17:35:50.141Z,21.27
2019-03-21T17:38:18.762Z,21.07
2019-03-21T17:40:47.448Z,20.78
2019-03-21T17:43:16.047Z,20.65
2019-03-21T17:45:45.478Z,20.62
2019-03-21T17:48:14.086Z,20.57
2019-03-21T17:50:42.814Z,20.65
2019-03-21T17:53:11.444Z,20.59
2019-03-21T17:55:39.934Z,20.38
2019-03-21T17:58:08.486Z,20.22
2019-03-21T18:00:37.310Z,19.89
2019-03-21T18:03:07.738Z,19.51
2019-03-21T18:05:36.337Z,19.21
2019-03-21T18:08:05.080Z,19.11
2019-03-21T18:10:36.725Z,18.95
2019-03-21T18:13:05.867Z,18.69
2019-03-21T18:15:34.446Z,18.54
2019-03-21T18:18:03.036Z,18.41
2019-03-21T18:20:31.818Z,18.23
2019-03-21T18:23:00.425Z,18.17
2019-03-21T18:25:29.104Z,18.14
2019-03-21T18:27:57.735Z,18.14
2019-03-21T18:30:26.311Z,18.07
2019-03-21T18:32:54.828Z,17.99
2019-03-21T18:35:23.595Z,17.75
2019-03-21T18:37:52.189Z,17.49
2019-03-21T18:40:21.528Z,17.39
2019-03-21T18:42:50.197Z,17.38
2019-03-21T18:45:18.985Z,17.36
2019-03-21T18:47:47.567Z,17.32
2019-03-21T18:50:16.956Z,17.19
2019-03-21T18:52:45.527Z,17.09
2019-03-21T18:55:14.285Z,16.97
2019-03-21T18:57:42.789Z,16.88
2019-03-21T19:00:21.293Z,16.84
2019-03-21T19:02:50.426Z,16.78
2019-03-21T19:05:19.036Z,16.74
2019-03-21T19:07:47.741Z,16.53
2019-03-21T19:10:16.862Z,16.45
2019-03-21T19:12:45.469Z,16.42
2019-03-21T19:15:16.137Z,16.48
2019-03-21T19:17:44.712Z,16.44
2019-03-21T19:20:15.623Z,16.32
2019-03-21T19:22:44.224Z,16.23
2019-03-21T19:25:18.646Z,16.28
2019-03-21T19:27:43.849Z,16.31
2019-03-21T19:30:17.669Z,16.27
2019-03-21T19:32:46.333Z,16.13
2019-03-21T19:35:15.279Z,16.06
2019-03-21T19:37:43.838Z,16.10
2019-03-21T19:40:17.868Z,16.10
2019-03-21T19:42:46.764Z,16.03
2019-03-21T19:45:17.431Z,15.86
2019-03-21T19:47:46.037Z,15.77
2019-03-21T19:50:19.855Z,15.74
2019-03-21T19:52:48.656Z,15.61
2019-03-21T19:55:25.825Z,15.70
2019-03-21T19:57:47.706Z,15.74
2019-03-21T20:00:19.078Z,15.74
2019-03-21T20:02:48.594Z,15.75
2019-03-21T20:05:17.225Z,15.80
2019-03-21T20:07:45.886Z,15.72
2019-03-21T20:10:20.103Z,15.61
2019-03-21T20:12:48.753Z,15.36
2019-03-21T20:15:18.835Z,15.11
2019-03-21T20:17:47.479Z,15.22
2019-03-21T20:20:17.178Z,15.34
2019-03-21T20:22:45.887Z,15.39
2019-03-21T20:25:14.510Z,15.39
2019-03-21T20:27:43.131Z,15.29
2019-03-21T20:30:17.052Z,15.09
2019-03-21T20:32:45.688Z,15.04
2019-03-21T20:35:14.274Z,15.09
2019-03-21T20:37:43.064Z,15.05
2019-03-21T20:40:17.249Z,14.83
2019-03-21T20:42:45.884Z,14.89
2019-03-21T20:45:16.386Z,14.90
2019-03-21T20:47:45.078Z,14.82
2019-03-21T20:50:14.024Z,14.68
2019-03-21T20:52:42.647Z,14.48
2019-03-21T20:55:11.571Z,14.28
2019-03-21T20:57:40.221Z,14.11
2019-03-21T21:00:17.945Z,13.96
2019-03-21T21:02:46.573Z,13.89
2019-03-21T21:05:15.728Z,13.75
2019-03-21T21:07:44.426Z,13.60
2019-03-21T21:10:14.351Z,13.50
2019-03-21T21:12:43.258Z,13.43
2019-03-21T21:15:16.227Z,13.36
2019-03-21T21:17:44.867Z,13.33
2019-03-21T21:20:16.015Z,13.27
2019-03-21T21:22:44.642Z,13.22
2019-03-21T21:25:14.041Z,13.10
2019-03-21T21:27:49.337Z,13.03
2019-03-21T21:30:15.759Z,13.02
2019-03-21T21:32:44.586Z,13.07
2019-03-21T21:35:13.346Z,13.19
2019-03-21T21:37:41.990Z,13.19
2019-03-21T21:40:12.327Z,13.11
2019-03-21T21:42:41.018Z,13.11
2019-03-21T21:45:12.245Z,13.16
2019-03-21T21:47:40.868Z,13.16
2019-03-21T21:50:12.428Z,13.05
2019-03-21T21:52:42.131Z,12.92
2019-03-21T21:55:11.410Z,12.99
2019-03-21T21:57:40.003Z,13.00
2019-03-21T22:00:17.326Z,12.91
2019-03-21T22:02:45.925Z,12.75
2019-03-21T22:05:14.514Z,12.75
2019-03-21T22:07:43.217Z,12.62
2019-03-21T22:10:11.906Z,12.58
2019-03-21T22:12:40.462Z,12.57
2019-03-21T22:15:13.781Z,12.65
2019-03-21T22:17:42.671Z,12.79
2019-03-21T22:20:15.967Z,12.90
2019-03-21T22:22:44.701Z,12.82
2019-03-21T22:25:13.405Z,12.69
2019-03-21T22:27:43.140Z,12.60
2019-03-21T22:30:21.327Z,12.52
2019-03-21T22:32:49.919Z,12.43
2019-03-21T22:35:18.555Z,12.37
2019-03-21T22:37:47.033Z,12.47
2019-03-21T22:40:17.695Z,12.59
2019-03-21T22:42:46.325Z,12.64
2019-03-21T22:45:19.284Z,12.56
2019-03-21T22:47:50.345Z,12.41
2019-03-21T22:50:18.464Z,12.30
2019-03-21T22:52:47.110Z,12.24
2019-03-21T22:55:15.805Z,12.12
2019-03-21T22:57:44.387Z,12.04
2019-03-21T23:00:15.833Z,11.97
2019-03-21T23:02:44.607Z,11.78
2019-03-21T23:05:13.835Z,11.61
2019-03-21T23:07:42.425Z,11.59
2019-03-21T23:10:11.719Z,11.56
2019-03-21T23:12:40.460Z,11.59
2019-03-21T23:15:10.372Z,11.63
2019-03-21T23:17:39.258Z,11.57
2019-03-21T23:20:10.364Z,11.54
2019-03-21T23:22:39.133Z,11.63
2019-03-21T23:25:08.745Z,11.69
2019-03-21T23:27:37.982Z,11.76
2019-03-21T23:30:12.309Z,11.74
2019-03-21T23:32:40.930Z,11.64
2019-03-21T23:35:10.512Z,11.50
2019-03-21T23:37:39.230Z,11.39
2019-03-21T23:40:15.293Z,11.28
2019-03-21T23:42:44.153Z,11.28
2019-03-21T23:45:14.504Z,11.28
2019-03-21T23:47:43.118Z,11.50
2019-03-21T23:50:14.658Z,11.69
2019-03-21T23:52:43.295Z,11.66
2019-03-21T23:55:12.415Z,11.54
2019-03-21T23:57:40.965Z,11.40
